sensor_id;sensor_type;location;lat;lon;timestamp;P1;durP1;ratioP1;P2;durP2;ratioP2
59555;SDS011;45374;52.746;6.304;2022-07-22T00:00:12;22.55;;;6.75;;
59555;SDS011;45374;52.746;6.304;2022-07-22T00:02:39;24.50;;;7.00;;
59555;SDS011;45374;52.746;6.304;2022-07-22T00:05:05;19.75;;;6.22;;
59555;SDS011;45374;52.746;6.304;2022-07-22T00:07:31;25.15;;;7.25;;
59555;SDS011;45374;52.746;6.304;2022-07-22T00:09:57;27.13;;;6.85;;
59555;SDS011;45374;52.746;6.304;2022-07-22T00:12:23;26.17;;;6.50;;
59555;SDS011;45374;52.746;6.304;2022-07-22T00:14:49;27.60;;;7.05;;
59555;SDS011;45374;52.746;6.304;2022-07-22T00:17:15;29.65;;;6.75;;
59555;SDS011;45374;52.746;6.304;2022-07-22T00:19:40;28.70;;;7.40;;
59555;SDS011;45374;52.746;6.304;2022-07-22T00:22:06;23.08;;;6.63;;
59555;SDS011;45374;52.746;6.304;2022-07-22T00:24:32;28.27;;;7.00;;
59555;SDS011;45374;52.746;6.304;2022-07-22T00:26:57;32.58;;;6.90;;
59555;SDS011;45374;52.746;6.304;2022-07-22T00:29:23;22.23;;;6.60;;
59555;SDS011;45374;52.746;6.304;2022-07-22T00:31:49;26.25;;;7.25;;
59555;SDS011;45374;52.746;6.304;2022-07-22T00:34:14;21.40;;;6.78;;
59555;SDS011;45374;52.746;6.304;2022-07-22T00:36:40;23.77;;;6.18;;
59555;SDS011;45374;52.746;6.304;2022-07-22T00:39:05;25.85;;;6.68;;
59555;SDS011;45374;52.746;6.304;2022-07-22T00:41:31;24.40;;;6.45;;
59555;SDS011;45374;52.746;6.304;2022-07-22T00:43:58;22.38;;;6.00;;
59555;SDS011;45374;52.746;6.304;2022-07-22T00:46:24;25.15;;;5.82;;
59555;SDS011;45374;52.746;6.304;2022-07-22T00:48:51;28.05;;;6.35;;
59555;SDS011;45374;52.746;6.304;2022-07-22T00:51:18;28.88;;;6.53;;
59555;SDS011;45374;52.746;6.304;2022-07-22T00:53:46;23.58;;;5.63;;
59555;SDS011;45374;52.746;6.304;2022-07-22T00:56:12;24.67;;;5.68;;
59555;SDS011;45374;52.746;6.304;2022-07-22T00:58:38;25.48;;;6.20;;
59555;SDS011;45374;52.746;6.304;2022-07-22T01:01:04;20.00;;;5.55;;
59555;SDS011;45374;52.746;6.304;2022-07-22T01:03:30;28.00;;;6.05;;
59555;SDS011;45374;52.746;6.304;2022-07-22T01:05:56;26.92;;;6.35;;
59555;SDS011;45374;52.746;6.304;2022-07-22T01:08:22;17.77;;;5.75;;
59555;SDS011;45374;52.746;6.304;2022-07-22T01:10:48;29.50;;;6.03;;
59555;SDS011;45374;52.746;6.304;2022-07-22T01:13:14;19.85;;;5.75;;
59555;SDS011;45374;52.746;6.304;2022-07-22T01:15:39;31.85;;;6.03;;
59555;SDS011;45374;52.746;6.304;2022-07-22T01:18:05;23.15;;;6.30;;
59555;SDS011;45374;52.746;6.304;2022-07-22T01:20:30;25.50;;;6.22;;
59555;SDS011;45374;52.746;6.304;2022-07-22T01:22:56;21.88;;;5.57;;
59555;SDS011;45374;52.746;6.304;2022-07-22T01:25:22;26.10;;;5.38;;
59555;SDS011;45374;52.746;6.304;2022-07-22T01:27:48;18.80;;;5.50;;
59555;SDS011;45374;52.746;6.304;2022-07-22T01:30:13;27.90;;;5.85;;
59555;SDS011;45374;52.746;6.304;2022-07-22T01:32:39;19.27;;;5.45;;
59555;SDS011;45374;52.746;6.304;2022-07-22T01:35:05;31.52;;;6.72;;
59555;SDS011;45374;52.746;6.304;2022-07-22T01:37:34;20.13;;;5.80;;
59555;SDS011;45374;52.746;6.304;2022-07-22T01:39:59;23.83;;;5.72;;
59555;SDS011;45374;52.746;6.304;2022-07-22T01:42:25;25.40;;;5.75;;
59555;SDS011;45374;52.746;6.304;2022-07-22T01:44:51;20.67;;;6.20;;
59555;SDS011;45374;52.746;6.304;2022-07-22T01:47:17;19.83;;;5.65;;
59555;SDS011;45374;52.746;6.304;2022-07-22T01:49:42;17.45;;;5.75;;
59555;SDS011;45374;52.746;6.304;2022-07-22T01:52:08;21.48;;;5.97;;
59555;SDS011;45374;52.746;6.304;2022-07-22T01:54:34;23.48;;;5.63;;
59555;SDS011;45374;52.746;6.304;2022-07-22T01:57:01;22.00;;;5.35;;
59555;SDS011;45374;52.746;6.304;2022-07-22T01:59:27;17.67;;;5.28;;
59555;SDS011;45374;52.746;6.304;2022-07-22T02:01:52;27.35;;;5.70;;
59555;SDS011;45374;52.746;6.304;2022-07-22T02:04:18;25.35;;;5.68;;
59555;SDS011;45374;52.746;6.304;2022-07-22T02:06:44;28.65;;;6.10;;
59555;SDS011;45374;52.746;6.304;2022-07-22T02:09:09;21.60;;;6.05;;
59555;SDS011;45374;52.746;6.304;2022-07-22T02:11:35;18.48;;;5.50;;
59555;SDS011;45374;52.746;6.304;2022-07-22T02:14:01;19.50;;;5.53;;
59555;SDS011;45374;52.746;6.304;2022-07-22T02:16:27;26.20;;;5.82;;
59555;SDS011;45374;52.746;6.304;2022-07-22T02:18:52;17.13;;;4.97;;
59555;SDS011;45374;52.746;6.304;2022-07-22T02:21:18;22.10;;;5.80;;
59555;SDS011;45374;52.746;6.304;2022-07-22T02:23:44;21.77;;;5.65;;
59555;SDS011;45374;52.746;6.304;2022-07-22T02:26:10;23.13;;;4.53;;
59555;SDS011;45374;52.746;6.304;2022-07-22T02:28:36;26.33;;;5.55;;
59555;SDS011;45374;52.746;6.304;2022-07-22T02:31:02;23.85;;;5.45;;
59555;SDS011;45374;52.746;6.304;2022-07-22T02:33:27;26.27;;;5.50;;
59555;SDS011;45374;52.746;6.304;2022-07-22T02:35:54;29.65;;;5.53;;
59555;SDS011;45374;52.746;6.304;2022-07-22T02:38:20;18.30;;;4.78;;
59555;SDS011;45374;52.746;6.304;2022-07-22T02:40:46;17.00;;;4.70;;
59555;SDS011;45374;52.746;6.304;2022-07-22T02:43:12;21.25;;;5.03;;
59555;SDS011;45374;52.746;6.304;2022-07-22T02:45:37;21.65;;;5.40;;
59555;SDS011;45374;52.746;6.304;2022-07-22T02:48:03;25.05;;;5.15;;
59555;SDS011;45374;52.746;6.304;2022-07-22T02:50:29;27.27;;;5.10;;
59555;SDS011;45374;52.746;6.304;2022-07-22T02:52:55;17.25;;;4.88;;
59555;SDS011;45374;52.746;6.304;2022-07-22T02:55:20;17.67;;;4.93;;
59555;SDS011;45374;52.746;6.304;2022-07-22T02:57:46;19.27;;;5.05;;
59555;SDS011;45374;52.746;6.304;2022-07-22T03:00:12;19.63;;;5.13;;
59555;SDS011;45374;52.746;6.304;2022-07-22T03:02:39;22.77;;;5.07;;
59555;SDS011;45374;52.746;6.304;2022-07-22T03:05:05;20.42;;;5.43;;
59555;SDS011;45374;52.746;6.304;2022-07-22T03:07:31;19.05;;;5.00;;
59555;SDS011;45374;52.746;6.304;2022-07-22T03:09:57;23.90;;;5.25;;
59555;SDS011;45374;52.746;6.304;2022-07-22T03:12:23;20.98;;;4.75;;
59555;SDS011;45374;52.746;6.304;2022-07-22T03:14:48;18.25;;;4.90;;
59555;SDS011;45374;52.746;6.304;2022-07-22T03:17:14;21.98;;;4.82;;
59555;SDS011;45374;52.746;6.304;2022-07-22T03:19:40;16.25;;;4.70;;
59555;SDS011;45374;52.746;6.304;2022-07-22T03:22:06;21.67;;;4.93;;
59555;SDS011;45374;52.746;6.304;2022-07-22T03:24:31;21.58;;;4.80;;
59555;SDS011;45374;52.746;6.304;2022-07-22T03:26:57;18.77;;;4.57;;
59555;SDS011;45374;52.746;6.304;2022-07-22T03:29:22;11.52;;;4.60;;
59555;SDS011;45374;52.746;6.304;2022-07-22T03:31:48;20.27;;;4.85;;
59555;SDS011;45374;52.746;6.304;2022-07-22T03:34:14;32.28;;;4.22;;
59555;SDS011;45374;52.746;6.304;2022-07-22T03:36:39;20.58;;;4.82;;
59555;SDS011;45374;52.746;6.304;2022-07-22T03:39:05;28.15;;;4.97;;
59555;SDS011;45374;52.746;6.304;2022-07-22T03:41:30;15.23;;;4.80;;
59555;SDS011;45374;52.746;6.304;2022-07-22T03:43:56;17.45;;;4.57;;
59555;SDS011;45374;52.746;6.304;2022-07-22T03:46:22;17.20;;;5.10;;
59555;SDS011;45374;52.746;6.304;2022-07-22T03:48:47;24.80;;;5.20;;
59555;SDS011;45374;52.746;6.304;2022-07-22T03:51:13;23.10;;;5.00;;
59555;SDS011;45374;52.746;6.304;2022-07-22T03:53:38;23.42;;;4.70;;
59555;SDS011;45374;52.746;6.304;2022-07-22T03:56:04;18.52;;;4.93;;
59555;SDS011;45374;52.746;6.304;2022-07-22T03:58:30;20.13;;;5.07;;
59555;SDS011;45374;52.746;6.304;2022-07-22T04:00:56;28.75;;;5.22;;
59555;SDS011;45374;52.746;6.304;2022-07-22T04:03:21;21.02;;;4.88;;
59555;SDS011;45374;52.746;6.304;2022-07-22T04:05:47;20.83;;;4.57;;
59555;SDS011;45374;52.746;6.304;2022-07-22T04:08:12;25.33;;;5.93;;
59555;SDS011;45374;52.746;6.304;2022-07-22T04:10:38;21.08;;;4.07;;
59555;SDS011;45374;52.746;6.304;2022-07-22T04:13:04;17.95;;;4.70;;
59555;SDS011;45374;52.746;6.304;2022-07-22T04:15:30;14.77;;;4.63;;
59555;SDS011;45374;52.746;6.304;2022-07-22T04:17:56;15.60;;;4.95;;
59555;SDS011;45374;52.746;6.304;2022-07-22T04:20:21;18.73;;;4.88;;
59555;SDS011;45374;52.746;6.304;2022-07-22T04:22:47;18.00;;;4.95;;
59555;SDS011;45374;52.746;6.304;2022-07-22T04:25:12;19.52;;;4.32;;
59555;SDS011;45374;52.746;6.304;2022-07-22T04:27:39;19.50;;;4.55;;
59555;SDS011;45374;52.746;6.304;2022-07-22T04:30:05;18.52;;;4.43;;
59555;SDS011;45374;52.746;6.304;2022-07-22T04:32:31;14.73;;;4.43;;
59555;SDS011;45374;52.746;6.304;2022-07-22T04:34:57;17.80;;;4.45;;
59555;SDS011;45374;52.746;6.304;2022-07-22T04:37:22;18.90;;;4.25;;
59555;SDS011;45374;52.746;6.304;2022-07-22T04:39:48;12.40;;;4.20;;
59555;SDS011;45374;52.746;6.304;2022-07-22T04:42:13;13.80;;;4.57;;
59555;SDS011;45374;52.746;6.304;2022-07-22T04:44:39;18.42;;;4.53;;
59555;SDS011;45374;52.746;6.304;2022-07-22T04:47:05;17.95;;;4.50;;
59555;SDS011;45374;52.746;6.304;2022-07-22T04:49:30;15.75;;;4.18;;
59555;SDS011;45374;52.746;6.304;2022-07-22T04:51:56;13.65;;;4.30;;
59555;SDS011;45374;52.746;6.304;2022-07-22T04:54:21;14.20;;;3.33;;
59555;SDS011;45374;52.746;6.304;2022-07-22T04:56:47;19.75;;;4.10;;
59555;SDS011;45374;52.746;6.304;2022-07-22T04:59:12;17.73;;;4.20;;
59555;SDS011;45374;52.746;6.304;2022-07-22T05:01:38;18.65;;;3.85;;
59555;SDS011;45374;52.746;6.304;2022-07-22T05:04:04;11.68;;;3.70;;
59555;SDS011;45374;52.746;6.304;2022-07-22T05:06:29;16.65;;;3.75;;
59555;SDS011;45374;52.746;6.304;2022-07-22T05:08:55;17.40;;;3.83;;
59555;SDS011;45374;52.746;6.304;2022-07-22T05:11:20;16.45;;;4.82;;
59555;SDS011;45374;52.746;6.304;2022-07-22T05:13:46;15.18;;;4.22;;
59555;SDS011;45374;52.746;6.304;2022-07-22T05:16:11;15.27;;;4.60;;
59555;SDS011;45374;52.746;6.304;2022-07-22T05:18:37;16.92;;;4.45;;
59555;SDS011;45374;52.746;6.304;2022-07-22T05:21:03;15.10;;;4.30;;
59555;SDS011;45374;52.746;6.304;2022-07-22T05:23:29;18.77;;;4.50;;
59555;SDS011;45374;52.746;6.304;2022-07-22T05:25:55;15.13;;;4.43;;
59555;SDS011;45374;52.746;6.304;2022-07-22T05:28:20;21.60;;;4.72;;
59555;SDS011;45374;52.746;6.304;2022-07-22T05:30:46;14.73;;;4.65;;
59555;SDS011;45374;52.746;6.304;2022-07-22T05:33:11;16.45;;;4.45;;
59555;SDS011;45374;52.746;6.304;2022-07-22T05:35:37;19.30;;;4.45;;
59555;SDS011;45374;52.746;6.304;2022-07-22T05:38:03;18.30;;;4.32;;
59555;SDS011;45374;52.746;6.304;2022-07-22T05:40:30;18.02;;;4.60;;
59555;SDS011;45374;52.746;6.304;2022-07-22T05:42:56;18.02;;;5.43;;
59555;SDS011;45374;52.746;6.304;2022-07-22T05:45:21;16.50;;;4.60;;
59555;SDS011;45374;52.746;6.304;2022-07-22T05:47:47;12.65;;;4.40;;
59555;SDS011;45374;52.746;6.304;2022-07-22T05:50:13;20.98;;;4.60;;
59555;SDS011;45374;52.746;6.304;2022-07-22T05:52:38;17.20;;;4.60;;
59555;SDS011;45374;52.746;6.304;2022-07-22T05:55:04;18.45;;;4.30;;
59555;SDS011;45374;52.746;6.304;2022-07-22T05:57:31;11.77;;;4.53;;
59555;SDS011;45374;52.746;6.304;2022-07-22T05:59:56;13.35;;;4.20;;
59555;SDS011;45374;52.746;6.304;2022-07-22T06:02:22;14.57;;;4.00;;
59555;SDS011;45374;52.746;6.304;2022-07-22T06:04:48;14.30;;;4.70;;
59555;SDS011;45374;52.746;6.304;2022-07-22T06:07:13;15.63;;;4.00;;
59555;SDS011;45374;52.746;6.304;2022-07-22T06:09:39;15.43;;;4.10;;
59555;SDS011;45374;52.746;6.304;2022-07-22T06:12:05;9.90;;;4.07;;
59555;SDS011;45374;52.746;6.304;2022-07-22T06:14:31;17.60;;;4.28;;
59555;SDS011;45374;52.746;6.304;2022-07-22T06:16:56;18.23;;;4.22;;
59555;SDS011;45374;52.746;6.304;2022-07-22T06:19:22;15.60;;;4.50;;
59555;SDS011;45374;52.746;6.304;2022-07-22T06:21:49;13.48;;;3.70;;
59555;SDS011;45374;52.746;6.304;2022-07-22T06:24:15;14.10;;;4.22;;
59555;SDS011;45374;52.746;6.304;2022-07-22T06:26:41;12.90;;;3.72;;
59555;SDS011;45374;52.746;6.304;2022-07-22T06:29:06;14.75;;;4.22;;
59555;SDS011;45374;52.746;6.304;2022-07-22T06:31:32;15.13;;;4.30;;
59555;SDS011;45374;52.746;6.304;2022-07-22T06:33:58;13.32;;;4.20;;
59555;SDS011;45374;52.746;6.304;2022-07-22T06:36:23;15.18;;;4.20;;
59555;SDS011;45374;52.746;6.304;2022-07-22T06:38:49;13.18;;;4.18;;
59555;SDS011;45374;52.746;6.304;2022-07-22T06:41:15;12.35;;;4.10;;
59555;SDS011;45374;52.746;6.304;2022-07-22T06:43:44;14.75;;;3.65;;
59555;SDS011;45374;52.746;6.304;2022-07-22T06:46:10;14.35;;;4.30;;
59555;SDS011;45374;52.746;6.304;2022-07-22T06:48:36;11.20;;;3.28;;
59555;SDS011;45374;52.746;6.304;2022-07-22T06:51:01;9.95;;;3.85;;
59555;SDS011;45374;52.746;6.304;2022-07-22T06:53:27;19.40;;;3.78;;
59555;SDS011;45374;52.746;6.304;2022-07-22T06:55:53;8.45;;;3.95;;
59555;SDS011;45374;52.746;6.304;2022-07-22T06:58:18;11.90;;;3.53;;
59555;SDS011;45374;52.746;6.304;2022-07-22T07:00:44;12.07;;;3.85;;
59555;SDS011;45374;52.746;6.304;2022-07-22T07:03:10;15.20;;;4.05;;
59555;SDS011;45374;52.746;6.304;2022-07-22T07:05:36;11.57;;;3.63;;
59555;SDS011;45374;52.746;6.304;2022-07-22T07:08:02;10.98;;;3.65;;
59555;SDS011;45374;52.746;6.304;2022-07-22T07:10:27;13.95;;;3.88;;
59555;SDS011;45374;52.746;6.304;2022-07-22T07:12:57;15.30;;;3.58;;
59555;SDS011;45374;52.746;6.304;2022-07-22T07:15:23;9.30;;;3.22;;
59555;SDS011;45374;52.746;6.304;2022-07-22T07:17:50;11.25;;;3.53;;
59555;SDS011;45374;52.746;6.304;2022-07-22T07:20:16;11.32;;;3.45;;
59555;SDS011;45374;52.746;6.304;2022-07-22T07:22:41;10.50;;;3.92;;
59555;SDS011;45374;52.746;6.304;2022-07-22T07:25:07;11.32;;;3.28;;
59555;SDS011;45374;52.746;6.304;2022-07-22T07:27:34;12.93;;;3.30;;
59555;SDS011;45374;52.746;6.304;2022-07-22T07:30:00;12.32;;;3.88;;
59555;SDS011;45374;52.746;6.304;2022-07-22T07:32:25;15.18;;;3.50;;
59555;SDS011;45374;52.746;6.304;2022-07-22T07:34:51;10.75;;;3.28;;
59555;SDS011;45374;52.746;6.304;2022-07-22T07:37:17;12.38;;;3.58;;
59555;SDS011;45374;52.746;6.304;2022-07-22T07:39:42;10.65;;;3.38;;
59555;SDS011;45374;52.746;6.304;2022-07-22T07:42:08;12.68;;;3.60;;
59555;SDS011;45374;52.746;6.304;2022-07-22T07:44:34;9.07;;;3.13;;
59555;SDS011;45374;52.746;6.304;2022-07-22T07:46:59;13.10;;;3.00;;
59555;SDS011;45374;52.746;6.304;2022-07-22T07:49:25;11.57;;;3.58;;
59555;SDS011;45374;52.746;6.304;2022-07-22T07:51:50;11.07;;;3.28;;
59555;SDS011;45374;52.746;6.304;2022-07-22T07:54:16;10.15;;;2.95;;
59555;SDS011;45374;52.746;6.304;2022-07-22T07:56:42;10.68;;;2.97;;
59555;SDS011;45374;52.746;6.304;2022-07-22T07:59:08;10.07;;;3.30;;
59555;SDS011;45374;52.746;6.304;2022-07-22T08:01:34;8.30;;;2.95;;
59555;SDS011;45374;52.746;6.304;2022-07-22T08:03:59;8.77;;;3.22;;
59555;SDS011;45374;52.746;6.304;2022-07-22T08:06:25;11.73;;;3.33;;
59555;SDS011;45374;52.746;6.304;2022-07-22T08:08:50;15.82;;;3.42;;
59555;SDS011;45374;52.746;6.304;2022-07-22T08:11:16;15.00;;;4.63;;
59555;SDS011;45374;52.746;6.304;2022-07-22T08:13:42;11.40;;;2.92;;
59555;SDS011;45374;52.746;6.304;2022-07-22T08:16:07;9.45;;;3.55;;
59555;SDS011;45374;52.746;6.304;2022-07-22T08:18:33;13.43;;;3.25;;
59555;SDS011;45374;52.746;6.304;2022-07-22T08:20:59;9.18;;;2.75;;
59555;SDS011;45374;52.746;6.304;2022-07-22T08:23:24;13.02;;;3.45;;
59555;SDS011;45374;52.746;6.304;2022-07-22T08:25:50;9.77;;;3.22;;
59555;SDS011;45374;52.746;6.304;2022-07-22T08:28:15;7.25;;;2.70;;
59555;SDS011;45374;52.746;6.304;2022-07-22T08:30:42;11.68;;;3.05;;
59555;SDS011;45374;52.746;6.304;2022-07-22T08:33:09;9.30;;;2.95;;
59555;SDS011;45374;52.746;6.304;2022-07-22T08:35:35;9.68;;;2.88;;
59555;SDS011;45374;52.746;6.304;2022-07-22T08:38:01;14.07;;;3.30;;
59555;SDS011;45374;52.746;6.304;2022-07-22T08:40:27;14.35;;;3.30;;
59555;SDS011;45374;52.746;6.304;2022-07-22T08:42:52;10.13;;;3.05;;
59555;SDS011;45374;52.746;6.304;2022-07-22T08:45:18;15.32;;;3.20;;
59555;SDS011;45374;52.746;6.304;2022-07-22T08:47:45;11.50;;;3.47;;
59555;SDS011;45374;52.746;6.304;2022-07-22T08:50:12;9.38;;;3.05;;
59555;SDS011;45374;52.746;6.304;2022-07-22T08:52:38;9.00;;;3.50;;
59555;SDS011;45374;52.746;6.304;2022-07-22T08:55:04;8.95;;;2.97;;
59555;SDS011;45374;52.746;6.304;2022-07-22T08:57:31;7.20;;;3.10;;
59555;SDS011;45374;52.746;6.304;2022-07-22T08:59:58;12.13;;;3.60;;
59555;SDS011;45374;52.746;6.304;2022-07-22T09:02:25;8.70;;;2.75;;
59555;SDS011;45374;52.746;6.304;2022-07-22T09:07:23;9.93;;;3.08;;
59555;SDS011;45374;52.746;6.304;2022-07-22T09:09:53;12.65;;;2.75;;
59555;SDS011;45374;52.746;6.304;2022-07-22T09:12:19;13.27;;;3.08;;
59555;SDS011;45374;52.746;6.304;2022-07-22T09:14:46;8.15;;;2.92;;
59555;SDS011;45374;52.746;6.304;2022-07-22T09:19:51;8.10;;;3.28;;
59555;SDS011;45374;52.746;6.304;2022-07-22T09:22:34;9.15;;;2.92;;
59555;SDS011;45374;52.746;6.304;2022-07-22T09:27:51;10.93;;;3.13;;
59555;SDS011;45374;52.746;6.304;2022-07-22T09:30:20;12.23;;;3.08;;
59555;SDS011;45374;52.746;6.304;2022-07-22T09:32:51;11.77;;;3.75;;
59555;SDS011;45374;52.746;6.304;2022-07-22T09:35:17;6.57;;;3.00;;
59555;SDS011;45374;52.746;6.304;2022-07-22T09:37:54;8.50;;;2.80;;
59555;SDS011;45374;52.746;6.304;2022-07-22T09:42:59;14.02;;;3.00;;
59555;SDS011;45374;52.746;6.304;2022-07-22T09:45:27;9.18;;;3.20;;
59555;SDS011;45374;52.746;6.304;2022-07-22T09:47:54;12.18;;;3.05;;
59555;SDS011;45374;52.746;6.304;2022-07-22T09:52:49;18.70;;;3.90;;
59555;SDS011;45374;52.746;6.304;2022-07-22T09:55:17;9.73;;;3.10;;
59555;SDS011;45374;52.746;6.304;2022-07-22T09:57:43;7.68;;;2.78;;
59555;SDS011;45374;52.746;6.304;2022-07-22T10:00:10;10.18;;;2.65;;
59555;SDS011;45374;52.746;6.304;2022-07-22T10:02:40;5.72;;;2.70;;
59555;SDS011;45374;52.746;6.304;2022-07-22T10:05:10;12.88;;;2.90;;
59555;SDS011;45374;52.746;6.304;2022-07-22T10:07:37;8.82;;;2.78;;
59555;SDS011;45374;52.746;6.304;2022-07-22T10:10:04;9.90;;;2.83;;
59555;SDS011;45374;52.746;6.304;2022-07-22T10:12:30;8.43;;;2.50;;
59555;SDS011;45374;52.746;6.304;2022-07-22T10:14:56;10.07;;;2.65;;
59555;SDS011;45374;52.746;6.304;2022-07-22T10:17:22;9.85;;;2.47;;
59555;SDS011;45374;52.746;6.304;2022-07-22T10:19:48;8.80;;;2.80;;
59555;SDS011;45374;52.746;6.304;2022-07-22T10:25:24;9.45;;;3.20;;
59555;SDS011;45374;52.746;6.304;2022-07-22T10:27:53;6.97;;;2.72;;
59555;SDS011;45374;52.746;6.304;2022-07-22T10:30:25;7.63;;;2.40;;
59555;SDS011;45374;52.746;6.304;2022-07-22T10:35:37;7.35;;;2.80;;
59555;SDS011;45374;52.746;6.304;2022-07-22T10:38:34;5.03;;;2.35;;
59555;SDS011;45374;52.746;6.304;2022-07-22T10:41:04;10.05;;;2.45;;
59555;SDS011;45374;52.746;6.304;2022-07-22T10:46:06;6.55;;;2.17;;
59555;SDS011;45374;52.746;6.304;2022-07-22T10:51:05;9.65;;;2.53;;
59555;SDS011;45374;52.746;6.304;2022-07-22T10:56:33;9.77;;;2.70;;
59555;SDS011;45374;52.746;6.304;2022-07-22T10:59:13;8.73;;;2.88;;
59555;SDS011;45374;52.746;6.304;2022-07-22T11:01:44;11.90;;;2.70;;
59555;SDS011;45374;52.746;6.304;2022-07-22T11:04:23;7.80;;;2.90;;
59555;SDS011;45374;52.746;6.304;2022-07-22T11:06:51;10.68;;;3.58;;
59555;SDS011;45374;52.746;6.304;2022-07-22T11:09:20;7.55;;;2.55;;
59555;SDS011;45374;52.746;6.304;2022-07-22T11:11:49;11.02;;;2.72;;
59555;SDS011;45374;52.746;6.304;2022-07-22T11:14:21;7.25;;;2.55;;
59555;SDS011;45374;52.746;6.304;2022-07-22T11:16:59;5.10;;;2.40;;
59555;SDS011;45374;52.746;6.304;2022-07-22T11:19:35;8.50;;;2.47;;
59555;SDS011;45374;52.746;6.304;2022-07-22T11:22:05;9.13;;;2.60;;
59555;SDS011;45374;52.746;6.304;2022-07-22T11:24:32;7.55;;;2.45;;
59555;SDS011;45374;52.746;6.304;2022-07-22T11:26:59;7.13;;;3.28;;
59555;SDS011;45374;52.746;6.304;2022-07-22T11:29:30;9.23;;;2.80;;
59555;SDS011;45374;52.746;6.304;2022-07-22T11:32:02;13.25;;;2.78;;
59555;SDS011;45374;52.746;6.304;2022-07-22T11:34:35;7.10;;;2.80;;
59555;SDS011;45374;52.746;6.304;2022-07-22T11:37:02;6.25;;;2.63;;
59555;SDS011;45374;52.746;6.304;2022-07-22T11:39:28;5.20;;;2.50;;
59555;SDS011;45374;52.746;6.304;2022-07-22T11:41:57;9.95;;;3.08;;
59555;SDS011;45374;52.746;6.304;2022-07-22T11:44:26;5.70;;;3.00;;
59555;SDS011;45374;52.746;6.304;2022-07-22T11:46:54;7.55;;;2.55;;
59555;SDS011;45374;52.746;6.304;2022-07-22T11:49:23;9.07;;;2.85;;
59555;SDS011;45374;52.746;6.304;2022-07-22T11:51:50;8.93;;;2.80;;
59555;SDS011;45374;52.746;6.304;2022-07-22T11:54:16;8.25;;;2.72;;
59555;SDS011;45374;52.746;6.304;2022-07-22T11:56:42;9.32;;;3.25;;
59555;SDS011;45374;52.746;6.304;2022-07-22T11:59:12;8.98;;;3.00;;
59555;SDS011;45374;52.746;6.304;2022-07-22T12:01:39;9.95;;;3.13;;
59555;SDS011;45374;52.746;6.304;2022-07-22T12:04:06;10.77;;;3.28;;
59555;SDS011;45374;52.746;6.304;2022-07-22T12:06:36;8.63;;;3.30;;
59555;SDS011;45374;52.746;6.304;2022-07-22T12:09:08;12.07;;;3.28;;
59555;SDS011;45374;52.746;6.304;2022-07-22T12:11:46;9.40;;;3.47;;
59555;SDS011;45374;52.746;6.304;2022-07-22T12:14:14;7.95;;;3.25;;
59555;SDS011;45374;52.746;6.304;2022-07-22T12:16:43;10.25;;;3.30;;
59555;SDS011;45374;52.746;6.304;2022-07-22T12:19:18;7.32;;;3.25;;
59555;SDS011;45374;52.746;6.304;2022-07-22T12:21:52;5.78;;;3.00;;
59555;SDS011;45374;52.746;6.304;2022-07-22T12:27:00;13.77;;;3.00;;
59555;SDS011;45374;52.746;6.304;2022-07-22T12:29:30;10.93;;;3.08;;
59555;SDS011;45374;52.746;6.304;2022-07-22T12:32:07;10.77;;;3.28;;
59555;SDS011;45374;52.746;6.304;2022-07-22T12:34:43;14.57;;;3.17;;
59555;SDS011;45374;52.746;6.304;2022-07-22T12:37:21;6.97;;;3.00;;
59555;SDS011;45374;52.746;6.304;2022-07-22T12:39:59;7.85;;;2.70;;
59555;SDS011;45374;52.746;6.304;2022-07-22T12:42:26;8.25;;;2.97;;
59555;SDS011;45374;52.746;6.304;2022-07-22T12:45:07;7.78;;;3.28;;
59555;SDS011;45374;52.746;6.304;2022-07-22T12:47:38;12.38;;;2.90;;
59555;SDS011;45374;52.746;6.304;2022-07-22T12:52:49;9.40;;;2.88;;
59555;SDS011;45374;52.746;6.304;2022-07-22T12:55:16;8.75;;;2.95;;
59555;SDS011;45374;52.746;6.304;2022-07-22T12:57:42;7.68;;;2.67;;
59555;SDS011;45374;52.746;6.304;2022-07-22T13:00:08;14.98;;;3.00;;
59555;SDS011;45374;52.746;6.304;2022-07-22T13:02:34;5.63;;;2.47;;
59555;SDS011;45374;52.746;6.304;2022-07-22T13:05:00;6.55;;;2.70;;
59555;SDS011;45374;52.746;6.304;2022-07-22T13:07:26;5.45;;;2.60;;
59555;SDS011;45374;52.746;6.304;2022-07-22T13:09:51;6.30;;;3.10;;
59555;SDS011;45374;52.746;6.304;2022-07-22T13:12:17;9.32;;;2.63;;
59555;SDS011;45374;52.746;6.304;2022-07-22T13:14:42;7.43;;;2.88;;
59555;SDS011;45374;52.746;6.304;2022-07-22T13:17:08;6.80;;;3.00;;
59555;SDS011;45374;52.746;6.304;2022-07-22T13:19:34;10.57;;;3.00;;
59555;SDS011;45374;52.746;6.304;2022-07-22T13:21:59;8.43;;;3.25;;
59555;SDS011;45374;52.746;6.304;2022-07-22T13:24:25;5.38;;;2.80;;
59555;SDS011;45374;52.746;6.304;2022-07-22T13:26:51;6.85;;;2.80;;
59555;SDS011;45374;52.746;6.304;2022-07-22T13:29:17;9.55;;;3.10;;
59555;SDS011;45374;52.746;6.304;2022-07-22T13:31:42;9.45;;;3.35;;
59555;SDS011;45374;52.746;6.304;2022-07-22T13:34:09;7.90;;;3.40;;
59555;SDS011;45374;52.746;6.304;2022-07-22T13:36:34;5.10;;;2.90;;
59555;SDS011;45374;52.746;6.304;2022-07-22T13:39:00;6.28;;;3.10;;
59555;SDS011;45374;52.746;6.304;2022-07-22T13:41:27;10.45;;;3.33;;
59555;SDS011;45374;52.746;6.304;2022-07-22T13:43:53;8.45;;;2.83;;
59555;SDS011;45374;52.746;6.304;2022-07-22T13:46:18;5.50;;;3.00;;
59555;SDS011;45374;52.746;6.304;2022-07-22T13:48:44;9.85;;;2.97;;
59555;SDS011;45374;52.746;6.304;2022-07-22T13:51:10;8.50;;;3.08;;
59555;SDS011;45374;52.746;6.304;2022-07-22T13:53:37;5.85;;;2.53;;
59555;SDS011;45374;52.746;6.304;2022-07-22T13:56:03;6.43;;;2.83;;
59555;SDS011;45374;52.746;6.304;2022-07-22T13:58:29;10.48;;;3.08;;
59555;SDS011;45374;52.746;6.304;2022-07-22T14:00:55;5.75;;;2.28;;
59555;SDS011;45374;52.746;6.304;2022-07-22T14:03:21;10.23;;;3.25;;
59555;SDS011;45374;52.746;6.304;2022-07-22T14:05:46;6.40;;;2.75;;
59555;SDS011;45374;52.746;6.304;2022-07-22T14:08:12;8.52;;;2.85;;
59555;SDS011;45374;52.746;6.304;2022-07-22T14:10:38;5.97;;;2.38;;
59555;SDS011;45374;52.746;6.304;2022-07-22T14:13:03;8.32;;;3.00;;
59555;SDS011;45374;52.746;6.304;2022-07-22T14:15:31;6.22;;;2.72;;
59555;SDS011;45374;52.746;6.304;2022-07-22T14:17:57;5.18;;;2.67;;
59555;SDS011;45374;52.746;6.304;2022-07-22T14:20:23;5.30;;;2.28;;
59555;SDS011;45374;52.746;6.304;2022-07-22T14:22:48;5.78;;;2.22;;
59555;SDS011;45374;52.746;6.304;2022-07-22T14:25:14;15.15;;;3.05;;
59555;SDS011;45374;52.746;6.304;2022-07-22T14:27:39;3.60;;;2.30;;
59555;SDS011;45374;52.746;6.304;2022-07-22T14:30:05;6.03;;;2.45;;
59555;SDS011;45374;52.746;6.304;2022-07-22T14:32:31;4.00;;;2.40;;
59555;SDS011;45374;52.746;6.304;2022-07-22T14:34:57;7.72;;;2.50;;
59555;SDS011;45374;52.746;6.304;2022-07-22T14:37:23;6.25;;;2.30;;
59555;SDS011;45374;52.746;6.304;2022-07-22T14:39:48;4.95;;;2.40;;
59555;SDS011;45374;52.746;6.304;2022-07-22T14:42:14;6.05;;;2.65;;
59555;SDS011;45374;52.746;6.304;2022-07-22T14:44:40;4.18;;;2.50;;
59555;SDS011;45374;52.746;6.304;2022-07-22T14:47:05;4.95;;;2.50;;
59555;SDS011;45374;52.746;6.304;2022-07-22T14:49:31;2.63;;;1.88;;
59555;SDS011;45374;52.746;6.304;2022-07-22T14:51:56;4.15;;;2.05;;
59555;SDS011;45374;52.746;6.304;2022-07-22T14:54:22;5.70;;;1.85;;
59555;SDS011;45374;52.746;6.304;2022-07-22T14:56:48;3.35;;;1.75;;
59555;SDS011;45374;52.746;6.304;2022-07-22T14:59:14;12.32;;;2.25;;
59555;SDS011;45374;52.746;6.304;2022-07-22T15:01:39;6.38;;;1.95;;
59555;SDS011;45374;52.746;6.304;2022-07-22T15:04:05;3.92;;;1.95;;
59555;SDS011;45374;52.746;6.304;2022-07-22T15:06:31;10.23;;;2.25;;